Time;durP1;ratioP1;P1;durP2;ratioP2;P2;SDS_P1;SDS_P2;PMS_P1;PMS_P2;Temp;Humidity;BMP_temperature;BMP_pressure;BME280_temperature;BME280_humidity;BME280_pressure;Samples;Min_cycle;Max_cycle;Signal;HPM_P1;HPM_P2
2023/08/31 00:00:51;;;;;;;6.50;3.23;;;;;;;16.25;100.00;95668.44;6215310;23;20409;-85
2023/08/31 00:03:16;;;;;;;7.03;3.60;;;;;;;16.13;100.00;95670.09;6217475;23;20411;-84
2023/08/31 00:05:43;;;;;;;7.27;3.80;;;;;;;16.11;100.00;95667.66;6191982;23;20011;-85
2023/08/31 00:08:11;;;;;;;6.77;3.30;;;;;;;16.14;100.00;95664.59;6244130;23;20046;-86
2023/08/31 00:10:41;;;;;;;5.57;3.30;;;;;;;16.44;100.00;95658.81;6216663;23;20008;-85
2023/08/31 00:13:07;;;;;;;7.00;3.10;;;;;;;16.23;100.00;95647.44;6217304;23;20031;-85
2023/08/31 00:15:35;;;;;;;6.30;3.30;;;;;;;16.23;100.00;95642.13;6192849;23;20322;-84
2023/08/31 00:18:00;;;;;;;4.90;2.87;;;;;;;16.47;100.00;95645.13;6217231;23;20011;-85
2023/08/31 00:20:26;;;;;;;5.47;3.03;;;;;;;16.17;100.00;95640.31;6192219;23;20008;-85
2023/08/31 00:23:10;;;;;;;5.40;3.27;;;;;;;16.29;100.00;95647.63;6191268;23;20008;-84
2023/08/31 00:25:36;;;;;;;5.60;3.37;;;;;;;16.18;100.00;95652.53;6193551;23;20031;-85
2023/08/31 00:28:04;;;;;;;6.13;3.33;;;;;;;16.19;100.00;95653.34;6217584;23;20004;-85
2023/08/31 00:30:31;;;;;;;5.73;3.43;;;;;;;16.24;100.00;95659.69;6217253;23;20026;-86
2023/08/31 00:32:59;;;;;;;6.03;3.87;;;;;;;16.16;100.00;95667.88;6217611;23;20094;-85
2023/08/31 00:35:28;;;;;;;6.13;3.80;;;;;;;16.41;100.00;95657.38;6192389;23;20102;-85
2023/08/31 00:37:58;;;;;;;7.10;3.87;;;;;;;16.29;100.00;95655.56;6191877;23;20019;-85
2023/08/31 00:40:25;;;;;;;6.67;4.17;;;;;;;16.36;100.00;95661.66;6217556;23;20008;-85
2023/08/31 00:42:51;;;;;;;7.10;3.83;;;;;;;15.93;100.00;95659.56;6192255;23;20011;-85
2023/08/31 00:45:19;;;;;;;7.57;3.87;;;;;;;16.02;100.00;95672.38;6191006;23;20078;-85
2023/08/31 00:47:47;;;;;;;5.63;3.37;;;;;;;16.17;100.00;95674.00;6189878;23;20326;-85
2023/08/31 00:50:13;;;;;;;6.90;3.17;;;;;;;15.99;100.00;95675.41;6191107;23;20770;-85
2023/08/31 00:52:39;;;;;;;7.23;3.70;;;;;;;15.97;100.00;95677.50;6191996;23;20030;-85
2023/08/31 00:55:05;;;;;;;6.73;3.50;;;;;;;16.19;100.00;95674.56;6192384;23;20444;-85
2023/08/31 00:57:30;;;;;;;9.77;3.93;;;;;;;16.15;100.00;95674.19;6190579;23;20000;-85
2023/08/31 00:59:56;;;;;;;7.20;3.53;;;;;;;16.33;100.00;95675.34;6215616;23;20030;-85
2023/08/31 01:02:37;;;;;;;8.53;4.17;;;;;;;16.03;100.00;95671.34;6192606;23;20007;-86
2023/08/31 01:05:08;;;;;;;6.13;2.90;;;;;;;15.79;100.00;95679.94;6217117;23;20035;-85
2023/08/31 01:08:05;;;;;;;7.67;4.00;;;;;;;15.94;100.00;95677.09;6217284;23;20016;-85
2023/08/31 01:10:44;;;;;;;5.37;3.40;;;;;;;15.82;100.00;95676.06;6146705;23;20442;-85
2023/08/31 01:13:13;;;;;;;8.30;3.60;;;;;;;15.93;100.00;95670.16;6193135;23;20008;-86
2023/08/31 01:15:43;;;;;;;8.27;4.40;;;;;;;16.13;100.00;95673.59;6217453;23;20086;-84
2023/08/31 01:18:11;;;;;;;8.00;3.93;;;;;;;16.17;100.00;95685.41;6192444;23;20447;-85
2023/08/31 01:20:42;;;;;;;7.10;3.20;;;;;;;15.89;100.00;95682.19;6243654;23;20008;-85
2023/08/31 01:23:26;;;;;;;7.47;4.10;;;;;;;15.79;100.00;95686.09;6191153;23;20000;-84
2023/08/31 01:25:54;;;;;;;10.07;3.80;;;;;;;15.85;100.00;95694.22;6192290;23;20428;-85
2023/08/31 01:28:22;;;;;;;8.13;4.10;;;;;;;16.11;100.00;95693.38;6192510;23;20008;-85
2023/08/31 01:30:47;;;;;;;10.03;3.87;;;;;;;16.24;100.00;95688.84;6191837;23;20336;-85
2023/08/31 01:33:13;;;;;;;7.27;4.40;;;;;;;15.97;100.00;95697.88;6191878;23;20000;-85
2023/08/31 01:36:04;;;;;;;9.03;4.33;;;;;;;15.65;100.00;95700.31;6130745;23;20324;-85
2023/08/31 01:38:34;;;;;;;5.83;3.43;;;;;;;15.87;100.00;95702.78;6126577;23;20010;-85
2023/08/31 01:41:07;;;;;;;7.27;3.87;;;;;;;15.77;100.00;95703.22;6125294;23;20016;-85
2023/08/31 01:43:36;;;;;;;5.10;3.30;;;;;;;15.92;100.00;95689.72;6126506;23;20014;-86
2023/08/31 01:46:03;;;;;;;7.70;3.73;;;;;;;15.71;100.00;95693.41;6216346;23;20000;-85
2023/08/31 01:48:38;;;;;;;6.50;3.60;;;;;;;15.67;100.00;95692.19;6192463;23;20510;-86
2023/08/31 01:51:05;;;;;;;6.50;3.80;;;;;;;15.66;100.00;95691.38;6217042;23;20015;-86
2023/08/31 01:53:32;;;;;;;6.17;3.40;;;;;;;15.32;100.00;95685.22;6192654;23;20039;-85
2023/08/31 01:55:57;;;;;;;6.43;3.67;;;;;;;15.15;100.00;95699.03;6215412;23;20012;-86
2023/08/31 01:58:23;;;;;;;7.53;4.67;;;;;;;15.02;100.00;95694.50;6191444;23;20050;-85
2023/08/31 02:00:49;;;;;;;7.37;3.73;;;;;;;15.23;100.00;95698.84;6192118;23;20438;-86
2023/08/31 02:03:14;;;;;;;6.50;3.83;;;;;;;15.09;100.00;95705.97;6194057;23;20016;-86
2023/08/31 02:05:50;;;;;;;9.30;4.00;;;;;;;15.24;100.00;95698.66;6194036;23;20028;-86
2023/08/31 02:08:17;;;;;;;6.10;3.47;;;;;;;15.23;100.00;95712.91;6218712;23;20004;-86
2023/08/31 02:10:54;;;;;;;8.20;3.63;;;;;;;15.21;100.00;95720.22;6192408;23;20011;-86
2023/08/31 02:13:22;;;;;;;6.47;3.67;;;;;;;15.14;100.00;95721.25;6218348;23;20347;-86
2023/08/31 02:15:52;;;;;;;9.17;4.17;;;;;;;15.06;100.00;95723.06;6193514;23;20007;-86
2023/08/31 02:18:19;;;;;;;8.10;3.93;;;;;;;15.16;100.00;95727.97;6193784;23;20022;-85
2023/08/31 02:20:45;;;;;;;12.33;5.60;;;;;;;15.00;100.00;95729.16;6193133;23;20004;-86
2023/08/31 02:23:11;;;;;;;8.33;4.40;;;;;;;15.06;100.00;95728.34;6192923;23;20083;-86
2023/08/31 02:25:45;;;;;;;7.17;4.07;;;;;;;15.08;100.00;95728.97;6192911;23;20519;-85
2023/08/31 02:28:11;;;;;;;8.07;4.07;;;;;;;15.05;100.00;95734.66;6218288;23;20012;-85
2023/08/31 02:30:37;;;;;;;6.50;3.67;;;;;;;15.08;100.00;95738.75;6192092;23;19996;-86
2023/08/31 02:33:04;;;;;;;8.03;4.03;;;;;;;15.05;100.00;95739.94;6193378;23;20831;-86
2023/08/31 02:35:30;;;;;;;6.27;3.93;;;;;;;15.09;100.00;95738.56;6188376;23;20008;-86
2023/08/31 02:37:56;;;;;;;7.03;4.27;;;;;;;15.09;100.00;95743.03;6192097;23;20433;-86
2023/08/31 02:40:21;;;;;;;7.20;4.10;;;;;;;15.37;100.00;95745.53;6192193;23;20344;-85
2023/08/31 02:42:51;;;;;;;7.90;4.60;;;;;;;15.40;100.00;95746.97;6218559;23;19996;-86
2023/08/31 02:45:17;;;;;;;15.17;4.97;;;;;;;15.18;100.00;95735.72;6218482;23;20008;-85
2023/08/31 02:47:43;;;;;;;10.63;4.80;;;;;;;15.46;100.00;95735.56;6218314;23;20016;-86
2023/08/31 02:50:09;;;;;;;8.33;4.63;;;;;;;15.47;100.00;95731.91;6218424;23;20347;-85
2023/08/31 02:52:35;;;;;;;9.30;4.70;;;;;;;15.51;100.00;95730.47;6217103;23;20004;-85
2023/08/31 02:55:01;;;;;;;7.97;4.57;;;;;;;15.46;100.00;95732.91;6244680;23;20000;-86
2023/08/31 02:57:26;;;;;;;8.47;5.03;;;;;;;15.68;100.00;95730.94;6192290;23;20027;-86
2023/08/31 02:59:56;;;;;;;9.03;4.97;;;;;;;15.57;100.00;95729.69;6218132;23;20008;-84
2023/08/31 03:02:22;;;;;;;6.97;4.13;;;;;;;15.63;100.00;95731.53;6191931;23;20011;-86
2023/08/31 03:04:47;;;;;;;7.93;4.67;;;;;;;15.71;100.00;95727.88;6190933;23;20007;-85
2023/08/31 03:07:15;;;;;;;7.30;4.53;;;;;;;15.57;100.00;95729.69;6215781;23;20403;-85
2023/08/31 03:09:41;;;;;;;9.20;4.80;;;;;;;15.49;100.00;95732.50;6213890;23;20008;-86
2023/08/31 03:12:07;;;;;;;9.40;4.73;;;;;;;15.70;100.00;95735.03;6190218;23;20644;-85
2023/08/31 03:14:32;;;;;;;6.90;4.70;;;;;;;15.53;100.00;95729.25;6189902;23;20083;-85
2023/08/31 03:16:58;;;;;;;8.23;4.90;;;;;;;15.41;100.00;95738.00;6189518;23;20015;-85
2023/08/31 03:19:23;;;;;;;8.60;5.13;;;;;;;15.29;100.00;95738.59;6214872;23;20000;-85
2023/08/31 03:21:52;;;;;;;9.60;5.10;;;;;;;15.54;100.00;95740.69;6189701;23;20002;-85
2023/08/31 03:24:17;;;;;;;9.53;5.53;;;;;;;15.41;100.00;95743.31;6215084;23;20004;-86
2023/08/31 03:26:43;;;;;;;9.03;5.30;;;;;;;15.53;100.00;95736.41;6189194;23;20008;-85
2023/08/31 03:29:08;;;;;;;7.97;5.10;;;;;;;15.72;100.00;95732.16;6215651;23;20024;-85
2023/08/31 03:31:42;;;;;;;7.63;5.13;;;;;;;15.56;100.00;95733.34;6189836;23;20023;-85
2023/08/31 03:34:07;;;;;;;10.18;5.63;;;;;;;15.66;100.00;95738.22;6189475;23;20087;-85
2023/08/31 03:36:36;;;;;;;8.50;5.60;;;;;;;15.66;100.00;95736.44;6189606;23;20008;-86
2023/08/31 03:39:02;;;;;;;10.97;6.20;;;;;;;15.51;100.00;95747.19;6189386;23;20043;-85
2023/08/31 03:41:28;;;;;;;9.83;5.80;;;;;;;15.70;100.00;95750.94;6214753;23;20008;-86
2023/08/31 03:43:54;;;;;;;9.70;5.67;;;;;;;15.79;100.00;95752.38;6215036;23;20007;-85
2023/08/31 03:46:24;;;;;;;9.07;5.43;;;;;;;15.86;100.00;95755.00;6213592;23;20089;-85
2023/08/31 03:48:49;;;;;;;10.53;6.00;;;;;;;15.70;100.00;95753.56;6189788;23;20059;-85
2023/08/31 03:51:16;;;;;;;9.93;6.13;;;;;;;15.53;100.00;95749.66;6188021;23;20455;-86
2023/08/31 03:53:44;;;;;;;8.60;5.77;;;;;;;15.64;100.00;95750.88;6215081;23;20088;-85
2023/08/31 03:56:09;;;;;;;11.70;5.80;;;;;;;15.66;100.00;95759.44;6214967;23;20034;-85
2023/08/31 03:58:35;;;;;;;10.60;6.20;;;;;;;15.68;100.00;95765.38;6188050;23;20007;-85
2023/08/31 04:01:00;;;;;;;7.70;5.60;;;;;;;15.65;100.00;95769.22;6189914;23;20004;-86
2023/08/31 04:03:27;;;;;;;10.03;6.60;;;;;;;15.83;100.00;95781.09;6214873;23;20004;-86
2023/08/31 04:05:55;;;;;;;9.87;5.67;;;;;;;15.83;100.00;95781.09;6215140;23;20019;-85
2023/08/31 04:08:23;;;;;;;8.80;5.10;;;;;;;15.58;100.00;95781.66;6188446;23;20063;-86
2023/08/31 04:10:49;;;;;;;8.77;4.90;;;;;;;15.36;100.00;95791.63;6188777;23;20062;-86
2023/08/31 04:13:14;;;;;;;10.27;5.10;;;;;;;15.66;100.00;95792.13;6214625;23;20009;-86
2023/08/31 04:15:40;;;;;;;9.80;5.73;;;;;;;15.56;100.00;95796.97;6214863;23;20011;-86
2023/08/31 04:18:05;;;;;;;9.63;5.53;;;;;;;15.33;100.00;95798.13;6189868;23;20011;-84
2023/08/31 04:20:33;;;;;;;9.77;5.43;;;;;;;15.48;100.00;95799.78;6215085;23;20095;-85
2023/08/31 04:23:08;;;;;;;9.07;4.67;;;;;;;15.39;100.00;95807.13;6214740;23;20364;-86
2023/08/31 04:25:34;;;;;;;7.43;5.00;;;;;;;15.50;100.00;95798.56;6214081;23;20015;-86
2023/08/31 04:27:59;;;;;;;7.40;4.77;;;;;;;15.88;100.00;95795.38;6212356;23;20004;-83
2023/08/31 04:30:26;;;;;;;10.27;5.17;;;;;;;15.61;100.00;95789.22;6210139;23;20012;-85
2023/08/31 04:32:51;;;;;;;8.07;5.37;;;;;;;15.40;100.00;95787.53;6210280;23;20008;-89
2023/08/31 04:35:17;;;;;;;8.93;5.27;;;;;;;15.39;100.00;95798.31;6189190;23;20022;-89
2023/08/31 04:37:44;;;;;;;8.80;4.80;;;;;;;15.56;100.00;95796.97;6193238;23;20008;-89
2023/08/31 04:40:12;;;;;;;9.27;4.87;;;;;;;15.47;100.00;95804.28;6218515;23;20099;-90
2023/08/31 04:42:38;;;;;;;9.80;5.10;;;;;;;15.38;100.00;95809.94;6243064;23;20004;-89
2023/08/31 04:45:05;;;;;;;7.20;4.40;;;;;;;15.68;100.00;95799.84;6216825;23;20008;-90
2023/08/31 04:47:30;;;;;;;8.53;4.93;;;;;;;15.51;100.00;95807.34;6216077;23;20004;-90
2023/08/31 04:49:59;;;;;;;8.27;4.87;;;;;;;15.42;100.00;95811.16;6194615;23;20007;-89
2023/08/31 04:52:25;;;;;;;7.97;5.50;;;;;;;15.46;100.00;95815.88;6198180;23;20004;-90
2023/08/31 04:54:50;;;;;;;7.77;4.50;;;;;;;15.54;100.00;95809.59;6216866;23;20010;-89
2023/08/31 04:57:16;;;;;;;8.43;5.60;;;;;;;15.50;100.00;95811.81;6216763;23;20066;-88
2023/08/31 04:59:41;;;;;;;6.67;4.43;;;;;;;15.40;100.00;95811.38;6243651;23;20007;-89
2023/08/31 05:02:22;;;;;;;6.90;4.80;;;;;;;15.42;100.00;95808.53;6192939;23;20027;-89
2023/08/31 05:04:48;;;;;;;6.97;4.60;;;;;;;15.50;100.00;95813.66;6193934;23;19996;-89
2023/08/31 05:07:14;;;;;;;8.07;5.63;;;;;;;15.61;100.00;95815.72;6218068;23;20012;-89
2023/08/31 05:09:40;;;;;;;8.07;4.97;;;;;;;15.67;100.00;95819.44;6192853;23;20008;-89
2023/08/31 05:12:07;;;;;;;10.07;5.43;;;;;;;15.66;100.00;95821.28;6244213;23;20004;-89
2023/08/31 05:14:36;;;;;;;10.17;5.00;;;;;;;15.78;100.00;95826.78;6219503;23;20075;-89
2023/08/31 05:17:04;;;;;;;10.23;4.87;;;;;;;15.68;100.00;95823.72;6193396;23;20464;-89
2023/08/31 05:19:30;;;;;;;8.97;5.77;;;;;;;15.63;100.00;95832.25;6219391;23;20008;-90
2023/08/31 05:25:31;;;;;;;7.97;5.23;;;;;;;15.72;100.00;95833.69;6218601;23;20015;-89
2023/08/31 05:27:56;;;;;;;7.63;5.30;;;;;;;15.44;100.00;95846.25;6193698;23;20008;-89
2023/08/31 05:30:22;;;;;;;8.33;5.47;;;;;;;15.63;100.00;95850.00;6244906;23;20000;-89
2023/08/31 05:32:47;;;;;;;7.73;5.20;;;;;;;15.59;100.00;95844.25;6194203;23;20456;-88
2023/08/31 05:35:13;;;;;;;9.00;4.97;;;;;;;15.59;100.00;95843.44;6219137;23;20022;-88
2023/08/31 05:37:47;;;;;;;10.60;4.97;;;;;;;15.72;100.00;95846.94;6193650;23;20004;-90
2023/08/31 05:40:13;;;;;;;8.67;4.93;;;;;;;15.54;100.00;95852.81;6218382;23;20455;-89
2023/08/31 05:42:39;;;;;;;9.60;6.27;;;;;;;15.63;100.00;95845.50;6193683;23;20004;-89
2023/08/31 05:45:06;;;;;;;7.10;4.90;;;;;;;15.84;100.00;95844.53;6193462;23;20011;-89
2023/08/31 05:47:31;;;;;;;7.90;5.00;;;;;;;15.67;100.00;95846.75;6218722;23;20015;-89
2023/08/31 05:49:57;;;;;;;8.03;4.43;;;;;;;15.83;100.00;95852.69;6193294;23;20468;-89
2023/08/31 05:52:26;;;;;;;7.77;4.57;;;;;;;15.85;100.00;95840.06;6219125;23;20004;-89
2023/08/31 05:54:52;;;;;;;8.50;4.57;;;;;;;15.85;100.00;95842.72;6193119;23;20310;-89
2023/08/31 05:57:19;;;;;;;8.80;4.77;;;;;;;16.30;100.00;95846.44;6192496;23;20008;-88
2023/08/31 05:59:45;;;;;;;7.60;4.07;;;;;;;16.25;100.00;95847.03;6218211;23;20058;-89
2023/08/31 06:02:10;;;;;;;6.83;4.40;;;;;;;16.46;100.00;95861.94;6193038;23;20050;-89
2023/08/31 06:04:45;;;;;;;7.80;4.40;;;;;;;15.96;100.00;95858.00;6191687;23;20008;-88
2023/08/31 06:07:11;;;;;;;8.37;4.33;;;;;;;15.96;100.00;95873.91;6193813;23;20033;-89
2023/08/31 06:09:37;;;;;;;11.43;4.63;;;;;;;16.09;100.00;95876.59;6195977;23;20012;-89
2023/08/31 06:12:08;;;;;;;7.60;3.90;;;;;;;15.96;100.00;95877.41;6192461;23;20090;-88
2023/08/31 06:14:34;;;;;;;7.03;4.00;;;;;;;16.26;100.00;95869.06;6192922;23;20123;-88
2023/08/31 06:17:00;;;;;;;8.93;4.33;;;;;;;16.09;100.00;95883.75;6191509;23;20004;-88
2023/08/31 06:19:28;;;;;;;7.67;4.80;;;;;;;16.36;100.00;95877.44;6244986;23;20000;-88
2023/08/31 06:21:54;;;;;;;7.37;4.10;;;;;;;16.34;100.00;95874.19;6192494;23;20054;-88
2023/08/31 06:24:19;;;;;;;8.70;4.57;;;;;;;16.41;100.00;95884.78;6216869;23;20000;-89
2023/08/31 06:26:45;;;;;;;7.03;4.40;;;;;;;16.42;100.00;95881.13;6192270;23;20018;-88
2023/08/31 06:29:20;;;;;;;11.13;5.20;;;;;;;16.33;100.00;95879.69;6191087;23;20011;-88
2023/08/31 06:31:45;;;;;;;9.03;3.90;;;;;;;16.73;100.00;95878.66;6216845;23;20000;-88
2023/08/31 06:34:11;;;;;;;8.37;4.40;;;;;;;16.75;100.00;95881.13;6216166;23;20078;-88
2023/08/31 06:36:38;;;;;;;7.80;3.87;;;;;;;16.68;100.00;95880.28;6193084;23;20333;-88
2023/08/31 06:39:04;;;;;;;10.57;3.93;;;;;;;16.76;100.00;95885.41;6191510;23;20008;-88
2023/08/31 06:41:31;;;;;;;8.67;4.07;;;;;;;16.89;100.00;95873.94;6191809;23;20012;-88
2023/08/31 06:43:56;;;;;;;8.03;3.43;;;;;;;17.50;100.00;95875.41;6192192;23;20035;-88
2023/08/31 06:46:22;;;;;;;7.80;4.13;;;;;;;17.90;100.00;95878.69;6216879;23;20058;-87
2023/08/31 06:48:48;;;;;;;8.40;3.70;;;;;;;17.93;100.00;95878.28;6191684;23;20004;-86
2023/08/31 06:51:15;;;;;;;7.47;3.53;;;;;;;17.73;100.00;95881.00;6216352;23;20027;-89
2023/08/31 06:53:43;;;;;;;6.93;3.97;;;;;;;18.34;100.00;95876.97;6191190;23;20004;-88
2023/08/31 06:56:14;;;;;;;6.43;3.13;;;;;;;18.20;100.00;95878.91;6191615;23;20000;-89
2023/08/31 06:58:39;;;;;;;7.78;3.47;;;;;;;18.20;100.00;95883.44;6216544;23;20049;-88
2023/08/31 07:01:08;;;;;;;6.47;3.05;;;;;;;18.95;100.00;95876.28;6216415;23;20031;-87
2023/08/31 07:03:34;;;;;;;5.75;2.80;;;;;;;18.81;100.00;95875.59;6216823;23;20004;-88
2023/08/31 07:06:00;;;;;;;10.05;3.60;;;;;;;18.34;100.00;95884.94;6191220;23;20027;-88
2023/08/31 07:08:26;;;;;;;7.68;2.70;;;;;;;18.50;100.00;95886.28;6192232;23;20026;-88
2023/08/31 07:10:52;;;;;;;7.38;2.70;;;;;;;18.81;100.00;95885.41;6215583;23;20000;-89
2023/08/31 07:13:25;;;;;;;6.28;3.08;;;;;;;19.10;100.00;95896.41;6190819;23;20004;-88
2023/08/31 07:16:08;;;;;;;7.95;3.08;;;;;;;18.42;100.00;95902.53;6191154;23;20012;-88
2023/08/31 07:18:35;;;;;;;5.93;2.65;;;;;;;18.44;100.00;95906.59;6192136;23;20012;-88
2023/08/31 07:21:00;;;;;;;6.40;2.90;;;;;;;18.79;100.00;95908.81;6193340;23;20008;-88
2023/08/31 07:23:26;;;;;;;4.53;2.17;;;;;;;19.41;100.00;95900.78;6218695;23;20050;-88
2023/08/31 07:25:51;;;;;;;5.65;2.65;;;;;;;19.61;100.00;95900.56;6191834;23;20004;-88
2023/08/31 07:28:17;;;;;;;7.30;2.53;;;;;;;20.06;100.00;95897.56;6195159;23;20549;-87
2023/08/31 07:30:43;;;;;;;5.88;2.28;;;;;;;20.11;100.00;95898.47;6216209;23;20007;-88
2023/08/31 07:33:09;;;;;;;6.88;2.70;;;;;;;21.49;100.00;95891.06;6192009;23;20391;-88
2023/08/31 07:35:35;;;;;;;8.70;2.40;;;;;;;21.89;100.00;95898.28;6218150;23;20008;-88
2023/08/31 07:38:00;;;;;;;5.70;2.38;;;;;;;21.50;100.00;95892.72;6218401;23;20451;-89
2023/08/31 07:40:27;;;;;;;6.47;2.30;;;;;;;21.66;100.00;95896.47;6220965;23;20454;-88
2023/08/31 07:42:52;;;;;;;6.40;1.70;;;;;;;21.55;100.00;95908.84;6244359;23;20000;-88
2023/08/31 07:45:21;;;;;;;6.15;2.15;;;;;;;21.37;100.00;95906.34;6192531;23;20004;-88
2023/08/31 07:47:47;;;;;;;7.85;2.00;;;;;;;21.08;100.00;95911.56;6192511;23;20070;-88
2023/08/31 07:50:14;;;;;;;7.57;2.42;;;;;;;21.15;100.00;95914.09;6220010;23;20008;-89
2023/08/31 07:52:39;;;;;;;6.47;2.55;;;;;;;21.23;100.00;95916.44;6220889;23;20004;-88
2023/08/31 07:55:07;;;;;;;5.75;2.13;;;;;;;21.40;100.00;95920.06;6220048;23;20004;-88
2023/08/31 07:57:34;;;;;;;6.00;2.28;;;;;;;21.91;100.00;95920.28;6196785;23;20007;-87
2023/08/31 07:59:59;;;;;;;6.53;2.10;;;;;;;22.26;100.00;95917.47;6191573;23;20058;-88
2023/08/31 08:02:25;;;;;;;5.05;2.00;;;;;;;21.03;100.00;95929.34;6190701;23;20000;-88
2023/08/31 08:04:50;;;;;;;6.55;2.00;;;;;;;21.34;100.00;95941.53;6216526;23;20000;-87
2023/08/31 08:07:16;;;;;;;11.93;2.22;;;;;;;22.08;100.00;95941.75;6216832;23;20015;-87
2023/08/31 08:09:41;;;;;;;4.78;1.73;;;;;;;21.75;100.00;95945.91;6215839;23;20008;-89
2023/08/31 08:12:10;;;;;;;7.72;2.33;;;;;;;21.75;100.00;95948.59;6215485;23;20003;-88
2023/08/31 08:14:35;;;;;;;5.60;2.33;;;;;;;21.77;100.00;95949.19;6191519;23;20004;-88
2023/08/31 08:17:01;;;;;;;5.70;1.98;;;;;;;21.36;100.00;95961.69;6191365;23;20004;-88
2023/08/31 08:19:27;;;;;;;7.15;1.80;;;;;;;21.25;100.00;95953.63;6190871;23;20007;-88
2023/08/31 08:21:52;;;;;;;5.75;2.05;;;;;;;21.46;100.00;95953.06;6191225;23;20007;-88
2023/08/31 08:24:18;;;;;;;5.82;2.10;;;;;;;21.46;100.00;95947.72;6217586;23;20109;-88
2023/08/31 08:26:45;;;;;;;6.15;2.10;;;;;;;22.26;100.00;95946.13;6193249;23;20014;-87
2023/08/31 08:29:10;;;;;;;8.00;2.20;;;;;;;21.83;100.00;95945.56;6218353;23;20004;-88
2023/08/31 08:31:36;;;;;;;6.38;1.92;;;;;;;22.42;100.00;95947.22;6193115;23;20662;-88
2023/08/31 08:34:03;;;;;;;5.22;1.77;;;;;;;23.68;100.00;95947.63;6193695;23;20051;-88
2023/08/31 08:36:29;;;;;;;6.35;1.70;;;;;;;23.61;100.00;95946.97;6219053;23;20364;-88
2023/08/31 08:38:57;;;;;;;4.80;2.00;;;;;;;22.62;100.00;95950.25;6193798;23;20008;-88
2023/08/31 08:41:24;;;;;;;5.00;1.70;;;;;;;22.64;100.00;95950.03;6193007;23;20008;-87
2023/08/31 08:43:51;;;;;;;4.70;1.55;;;;;;;22.69;100.00;95953.59;6193657;23;20004;-88
2023/08/31 08:46:17;;;;;;;5.20;2.20;;;;;;;22.89;100.00;95957.66;6196993;23;20008;-88
2023/08/31 08:48:49;;;;;;;7.32;1.48;;;;;;;23.49;100.00;95957.00;6219642;23;20004;-88
2023/08/31 08:51:15;;;;;;;6.07;2.03;;;;;;;23.10;100.00;95965.00;6217823;23;20015;-87
2023/08/31 08:53:43;;;;;;;5.95;1.70;;;;;;;22.62;100.00;95962.84;6219151;23;20028;-88
2023/08/31 08:56:08;;;;;;;5.70;1.92;;;;;;;22.72;100.00;95958.47;6245074;23;20008;-88
2023/08/31 08:58:34;;;;;;;4.40;1.90;;;;;;;22.14;100.00;95967.59;6193644;23;20468;-89
2023/08/31 09:01:53;;;;;;;8.30;2.45;;;;;;;23.16;100.00;95955.97;6193436;23;20004;-89
2023/08/31 09:04:19;;;;;;;5.03;1.92;;;;;;;22.49;100.00;95956.72;6218896;23;20007;-88
2023/08/31 09:06:44;;;;;;;5.10;1.95;;;;;;;22.17;100.00;95963.66;6244808;23;20000;-88
2023/08/31 09:09:10;;;;;;;6.43;1.98;;;;;;;23.06;100.00;95969.22;6242480;23;20559;-89
2023/08/31 09:11:36;;;;;;;5.03;2.28;;;;;;;23.28;100.00;95972.81;6217172;23;20023;-89
2023/08/31 09:14:20;;;;;;;5.80;1.92;;;;;;;23.04;100.00;95968.69;6193908;23;20004;-88
2023/08/31 09:16:48;;;;;;;7.32;2.20;;;;;;;22.85;100.00;95973.44;6194179;23;20053;-88
2023/08/31 09:19:24;;;;;;;5.93;1.70;;;;;;;22.94;100.00;95972.00;6218835;23;20012;-88
2023/08/31 09:21:51;;;;;;;4.00;1.90;;;;;;;22.57;100.00;95976.97;6193018;23;19996;-88
2023/08/31 09:24:18;;;;;;;4.95;1.88;;;;;;;22.88;100.00;95972.13;6193478;23;20015;-89
2023/08/31 09:26:52;;;;;;;6.43;2.53;;;;;;;23.41;94.18;95970.84;6218930;23;20012;-89
2023/08/31 09:29:18;;;;;;;6.72;2.30;;;;;;;24.49;95.16;95971.13;6193456;23;20012;-88
2023/08/31 09:31:45;;;;;;;8.27;3.20;;;;;;;24.26;88.89;95964.16;6219147;23;20043;-88
2023/08/31 09:34:10;;;;;;;7.38;2.15;;;;;;;24.77;87.07;95966.56;6196641;23;20031;-88
2023/08/31 09:36:37;;;;;;;5.97;2.42;;;;;;;23.33;91.25;95977.41;6193333;23;20016;-88
2023/08/31 09:39:04;;;;;;;7.32;2.08;;;;;;;22.26;100.00;95984.44;6192948;23;20238;-88
2023/08/31 09:41:30;;;;;;;6.38;2.15;;;;;;;22.01;100.00;95987.41;6192730;23;20012;-89
2023/08/31 09:43:55;;;;;;;6.00;2.05;;;;;;;22.21;100.00;95991.59;6217951;23;20008;-88
2023/08/31 09:46:22;;;;;;;7.40;2.17;;;;;;;21.77;100.00;95988.53;6217863;23;20058;-89
2023/08/31 09:48:49;;;;;;;4.88;2.00;;;;;;;20.74;100.00;95996.00;6193917;23;20035;-88
2023/08/31 09:51:22;;;;;;;4.57;1.88;;;;;;;19.81;100.00;95991.88;6193072;23;20152;-88
2023/08/31 09:53:49;;;;;;;7.85;2.17;;;;;;;20.37;100.00;95990.75;6218563;23;20004;-89
2023/08/31 09:56:21;;;;;;;4.72;2.30;;;;;;;20.68;100.00;95996.91;6193069;23;20031;-88
2023/08/31 09:58:47;;;;;;;5.85;1.92;;;;;;;20.45;100.00;95995.78;6217136;23;20028;-88
2023/08/31 10:01:13;;;;;;;5.30;2.15;;;;;;;20.71;100.00;96004.47;6217556;23;20010;-88
2023/08/31 10:04:35;;;;;;;5.15;1.90;;;;;;;20.87;100.00;96005.69;6215804;23;20004;-89
2023/08/31 10:07:03;;;;;;;4.97;1.90;;;;;;;20.57;100.00;96005.72;6217600;23;20004;-88
2023/08/31 10:09:30;;;;;;;9.70;2.33;;;;;;;20.23;100.00;96014.16;6217124;23;20015;-88
2023/08/31 10:11:56;;;;;;;4.82;2.05;;;;;;;20.48;100.00;96008.69;6192058;23;20034;-88
2023/08/31 10:14:22;;;;;;;7.38;1.92;;;;;;;20.29;100.00;96017.78;6217331;23;20046;-88
2023/08/31 10:16:49;;;;;;;4.85;1.92;;;;;;;20.19;100.00;96012.19;6192928;23;20444;-88
2023/08/31 10:19:15;;;;;;;7.35;2.40;;;;;;;19.62;100.00;96023.06;6217517;23;20050;-88
2023/08/31 10:21:41;;;;;;;5.03;2.00;;;;;;;19.98;100.00;96008.09;6216423;23;20000;-89
2023/08/31 10:24:07;;;;;;;5.60;1.83;;;;;;;19.87;100.00;96009.66;6192031;23;20079;-89
2023/08/31 10:26:33;;;;;;;5.40;2.30;;;;;;;20.46;100.00;96010.78;6216038;23;20034;-89
2023/08/31 10:29:00;;;;;;;10.10;2.17;;;;;;;20.73;100.00;96009.63;6217967;23;20033;-89
2023/08/31 10:31:30;;;;;;;4.05;1.60;;;;;;;21.89;100.00;96013.38;6243352;23;20007;-88
2023/08/31 10:34:03;;;;;;;7.88;2.33;;;;;;;22.39;100.00;96001.28;6217186;23;20004;-89
2023/08/31 10:36:45;;;;;;;6.28;2.38;;;;;;;24.10;97.98;95995.38;6217692;23;20079;-88
2023/08/31 10:39:16;;;;;;;6.30;1.90;;;;;;;24.97;82.56;95988.25;6216939;23;20016;-88
2023/08/31 10:41:51;;;;;;;6.10;1.88;;;;;;;24.75;82.29;95992.88;6191410;23;20011;-88
2023/08/31 10:44:24;;;;;;;7.80;1.90;;;;;;;25.00;75.34;95995.00;6191661;23;20010;-89
2023/08/31 10:46:51;;;;;;;4.07;1.80;;;;;;;25.80;69.40;95988.59;6216735;23;20011;-88
2023/08/31 10:49:19;;;;;;;5.88;1.88;;;;;;;23.96;76.24;95994.16;6191553;23;20584;-89
2023/08/31 10:51:48;;;;;;;5.80;2.08;;;;;;;23.94;84.37;95996.25;6191192;23;20012;-88
2023/08/31 10:54:26;;;;;;;6.47;2.75;;;;;;;23.77;83.43;95996.31;6191900;23;20204;-87
2023/08/31 10:57:00;;;;;;;5.53;2.40;;;;;;;22.25;97.77;96006.13;6216419;23;20057;-85
2023/08/31 10:59:40;;;;;;;4.75;1.98;;;;;;;22.04;100.00;96011.03;6216148;23;20027;-84
2023/08/31 11:02:06;;;;;;;6.25;2.10;;;;;;;21.46;100.00;96016.47;6216852;23;20050;-85
2023/08/31 11:05:30;;;;;;;5.05;2.00;;;;;;;21.70;98.04;96014.59;6216241;23;20555;-85
2023/08/31 11:07:57;;;;;;;5.65;2.10;;;;;;;21.91;97.23;96008.63;6191414;23;20831;-85
2023/08/31 11:11:15;;;;;;;4.65;2.00;;;;;;;21.92;97.31;96012.09;6190347;23;20023;-85
2023/08/31 11:13:47;;;;;;;3.80;2.00;;;;;;;22.47;96.71;96006.28;6215926;23;20012;-86
2023/08/31 11:16:13;;;;;;;5.28;2.45;;;;;;;22.86;91.79;96003.72;6190989;23;20722;-85
2023/08/31 11:18:39;;;;;;;6.07;1.80;;;;;;;24.48;77.90;95996.41;6191436;23;20000;-85
2023/08/31 11:21:05;;;;;;;5.68;1.88;;;;;;;23.56;76.63;95999.75;6190767;23;20085;-85
2023/08/31 11:23:31;;;;;;;6.43;2.15;;;;;;;23.38;71.14;96000.84;6191290;23;20443;-84
2023/08/31 11:25:57;;;;;;;5.60;2.28;;;;;;;23.89;68.99;95990.84;6191578;23;20085;-86
2023/08/31 11:28:22;;;;;;;8.82;1.95;;;;;;;24.99;68.33;95991.50;6191625;23;20047;-85
2023/08/31 11:30:48;;;;;;;5.25;1.90;;;;;;;25.89;59.51;95994.31;6191628;23;20091;-85
2023/08/31 11:33:14;;;;;;;4.97;2.05;;;;;;;25.45;60.96;95991.03;6191776;23;20015;-86